createdAt,value
2023-03-03T00:02:03.315Z,86.16
2023-03-03T00:06:11.389Z,87.00
2023-03-03T00:10:16.032Z,86.91
2023-03-03T00:14:19.996Z,84.38
2023-03-03T00:18:27.417Z,83.66
2023-03-03T00:22:33.632Z,85.02
2023-03-03T00:26:41.648Z,85.75
2023-03-03T00:30:45.085Z,87.01
2023-03-03T00:34:48.652Z,86.27
2023-03-03T00:38:53.991Z,85.50
2023-03-03T00:42:58.041Z,87.58
2023-03-03T00:47:05.076Z,86.58
2023-03-03T00:51:20.891Z,82.81
2023-03-03T00:55:25.935Z,88.29
2023-03-03T00:59:29.761Z,88.07
2023-03-03T01:03:33.083Z,86.32
2023-03-03T01:07:36.684Z,85.60
2023-03-03T01:11:41.801Z,85.26
2023-03-03T01:15:48.348Z,84.26
2023-03-03T01:19:52.181Z,86.58
2023-03-03T01:23:55.757Z,90.00
2023-03-03T01:28:02.840Z,89.32
2023-03-03T01:32:06.632Z,85.28
2023-03-03T01:36:10.485Z,89.50
2023-03-03T01:40:17.611Z,87.01
2023-03-03T01:44:22.840Z,88.73
2023-03-03T01:48:30.581Z,86.79
2023-03-03T01:52:36.114Z,88.44
2023-03-03T01:56:39.348Z,88.99
2023-03-03T02:00:46.829Z,87.05
2023-03-03T02:04:51.200Z,86.58
2023-03-03T02:08:58.603Z,85.48
2023-03-03T02:13:02.384Z,86.29
2023-03-03T02:17:07.766Z,87.63
2023-03-03T02:21:13.583Z,87.15
2023-03-03T02:25:21.873Z,87.37
2023-03-03T02:29:27.033Z,87.78
2023-03-03T02:33:31.020Z,86.03
2023-03-03T02:37:34.232Z,88.21
2023-03-03T02:41:41.197Z,88.00
2023-03-03T02:45:47.231Z,85.52
2023-03-03T02:49:50.656Z,88.82
2023-03-03T02:53:54.474Z,89.44
2023-03-03T02:57:57.785Z,88.27
2023-03-03T03:02:02.396Z,87.78
2023-03-03T03:06:05.941Z,85.20
2023-03-03T03:10:10.156Z,84.99
2023-03-03T03:14:15.443Z,86.58
2023-03-03T03:18:20.763Z,87.12
2023-03-03T03:22:24.075Z,87.27
2023-03-03T03:26:27.591Z,89.19
2023-03-03T03:30:31.198Z,88.97
2023-03-03T03:34:36.225Z,87.67
2023-03-03T03:38:40.078Z,89.92
2023-03-03T03:42:43.414Z,87.75
2023-03-03T03:46:46.871Z,86.51
2023-03-03T03:50:52.129Z,87.00
2023-03-03T03:54:55.730Z,84.36
2023-03-03T03:58:58.970Z,87.14
2023-03-03T04:03:02.572Z,84.26
2023-03-03T04:07:07.378Z,84.76
2023-03-03T04:11:11.056Z,89.11
2023-03-03T04:15:15.430Z,85.72
2023-03-03T04:19:18.952Z,87.06
2023-03-03T04:23:23.802Z,86.36
2023-03-03T04:27:26.703Z,87.96
2023-03-03T04:31:29.900Z,88.26
2023-03-03T04:35:35.391Z,87.80
2023-03-03T04:39:40.471Z,85.43
2023-03-03T04:43:43.677Z,87.75
2023-03-03T04:47:46.939Z,87.81
2023-03-03T04:51:50.526Z,86.56
2023-03-03T04:55:55.216Z,87.56
2023-03-03T04:59:58.595Z,88.45
2023-03-03T05:04:02.132Z,88.57
2023-03-03T05:08:05.741Z,87.35
2023-03-03T05:12:10.899Z,89.39
2023-03-03T05:16:16.925Z,87.34
2023-03-03T05:20:20.327Z,87.55
2023-03-03T05:24:24.075Z,87.90
2023-03-03T05:28:28.838Z,86.50
2023-03-03T05:32:32.296Z,87.61
2023-03-03T05:36:35.458Z,85.03
2023-03-03T05:40:39.492Z,85.81
2023-03-03T05:44:44.391Z,88.29
2023-03-03T05:48:48.279Z,90.35
2023-03-03T05:52:51.506Z,87.04
2023-03-03T05:56:54.913Z,86.19
2023-03-03T06:00:59.375Z,87.20
2023-03-03T06:05:02.928Z,87.96
2023-03-03T06:09:06.398Z,89.53
2023-03-03T06:13:09.983Z,89.17
2023-03-03T06:17:14.377Z,88.65
2023-03-03T06:21:17.156Z,89.43
2023-03-03T06:25:19.937Z,86.16
2023-03-03T06:29:22.775Z,88.77
2023-03-03T06:33:27.080Z,86.69
2023-03-03T06:37:29.864Z,87.76
2023-03-03T06:41:32.563Z,86.72
2023-03-03T06:45:35.489Z,87.50
2023-03-03T06:49:39.922Z,87.45
2023-03-03T06:53:42.627Z,85.81
2023-03-03T06:57:45.460Z,86.15
2023-03-03T07:01:49.839Z,86.22
2023-03-03T07:05:54.081Z,84.88
2023-03-03T07:09:57.932Z,83.69
2023-03-03T07:14:00.675Z,88.14
2023-03-03T07:18:04.645Z,86.98
2023-03-03T07:22:15.924Z,89.60
2023-03-03T07:26:20.844Z,88.71
2023-03-03T07:30:28.431Z,86.47
2023-03-03T07:34:38.188Z,88.07
2023-03-03T07:38:44.192Z,88.27
2023-03-03T07:42:47.051Z,86.56
2023-03-03T07:46:50.617Z,85.11
2023-03-03T07:50:53.667Z,80.91
2023-03-03T07:55:00.474Z,83.52
2023-03-03T07:59:04.858Z,82.36
2023-03-03T08:03:13.784Z,81.40
2023-03-03T08:07:18.835Z,80.59
2023-03-03T08:11:23.221Z,80.07
2023-03-03T08:15:27.910Z,79.84
2023-03-03T08:19:32.128Z,76.88
2023-03-03T08:23:34.874Z,79.38
2023-03-03T08:27:39.254Z,77.36
2023-03-03T08:31:42.367Z,72.18
2023-03-03T08:35:45.481Z,76.46
2023-03-03T08:39:48.314Z,75.69
2023-03-03T08:43:52.524Z,73.79
2023-03-03T08:47:56.184Z,74.51
2023-03-03T08:52:00.821Z,76.06
2023-03-03T08:56:03.810Z,72.98
2023-03-03T09:00:10.576Z,72.10
2023-03-03T09:04:13.554Z,69.61
2023-03-03T09:08:17.026Z,69.26
2023-03-03T09:12:21.899Z,68.82
2023-03-03T09:16:29.575Z,68.20
2023-03-03T09:20:36.157Z,65.54
2023-03-03T09:24:39.520Z,66.14
2023-03-03T09:28:48.154Z,65.06
2023-03-03T09:32:55.766Z,61.82
2023-03-03T09:37:00.275Z,61.36
2023-03-03T09:41:36.036Z,61.23
2023-03-03T09:45:53.506Z,61.27
2023-03-03T09:50:06.209Z,60.13
2023-03-03T09:54:28.726Z,58.09
2023-03-03T09:58:47.549Z,59.40
2023-03-03T10:03:19.718Z,55.61
2023-03-03T10:07:37.990Z,56.18
2023-03-03T10:11:48.699Z,57.85
2023-03-03T10:16:00.873Z,56.56
2023-03-03T10:20:19.616Z,55.53
2023-03-03T10:24:33.507Z,54.66
2023-03-03T10:28:57.600Z,55.03
2023-03-03T10:33:03.713Z,51.36
2023-03-03T10:37:13.851Z,51.72
2023-03-03T10:41:28.444Z,55.22
2023-03-03T10:45:49.415Z,51.86
2023-03-03T10:49:57.938Z,54.18
2023-03-03T10:54:11.367Z,49.50
2023-03-03T10:58:48.776Z,49.24
2023-03-03T11:03:18.750Z,51.82
2023-03-03T11:07:25.834Z,53.36
2023-03-03T11:11:36.742Z,49.90
2023-03-03T11:16:03.442Z,51.84
2023-03-03T11:20:13.725Z,49.93
2023-03-03T11:24:43.517Z,52.13
2023-03-03T11:28:58.567Z,50.40
2023-03-03T11:33:06.078Z,49.15
2023-03-03T11:37:12.898Z,48.83
2023-03-03T11:41:27.983Z,49.47
2023-03-03T11:45:38.232Z,47.63
2023-03-03T11:49:52.812Z,48.35
2023-03-03T11:54:00.749Z,47.49
2023-03-03T11:58:13.839Z,49.66
2023-03-03T12:02:28.706Z,45.37
2023-03-03T12:06:43.107Z,46.86
2023-03-03T12:10:51.005Z,44.12
2023-03-03T12:15:07.500Z,48.75
2023-03-03T12:19:36.079Z,47.98
2023-03-03T12:23:52.536Z,45.32
2023-03-03T12:28:01.283Z,45.51
2023-03-03T12:32:15.409Z,44.78
2023-03-03T12:36:31.968Z,44.09
2023-03-03T12:40:38.853Z,45.90
2023-03-03T12:44:47.530Z,45.66
2023-03-03T12:48:51.021Z,46.05
2023-03-03T12:53:09.934Z,46.16
2023-03-03T12:57:27.399Z,44.63
2023-03-03T13:01:39.800Z,44.56
2023-03-03T13:05:52.304Z,44.55
2023-03-03T13:10:06.227Z,46.50
2023-03-03T13:14:21.096Z,46.08
2023-03-03T13:18:36.293Z,43.18
2023-03-03T13:22:42.162Z,47.04
2023-03-03T13:26:50.980Z,45.98
2023-03-03T13:30:59.933Z,45.83
2023-03-03T13:35:08.867Z,42.73
2023-03-03T13:39:21.073Z,46.14
2023-03-03T13:43:30.909Z,44.40
2023-03-03T13:47:44.861Z,45.72
2023-03-03T13:51:59.126Z,44.88
2023-03-03T13:56:10.361Z,44.51
2023-03-03T14:00:36.843Z,45.65
2023-03-03T14:04:52.195Z,46.69
2023-03-03T14:09:12.382Z,44.53
2023-03-03T14:13:26.275Z,46.27
2023-03-03T14:17:36.525Z,44.59
2023-03-03T14:21:47.635Z,45.88
2023-03-03T14:26:11.172Z,44.86
2023-03-03T14:30:34.443Z,44.67
2023-03-03T14:34:42.445Z,46.07
2023-03-03T14:38:52.926Z,44.34
2023-03-03T14:42:58.293Z,46.74
2023-03-03T14:47:22.308Z,43.72
2023-03-03T14:51:28.041Z,45.78
2023-03-03T14:55:38.405Z,47.89
2023-03-03T14:59:42.403Z,44.79
2023-03-03T15:03:52.974Z,47.77
2023-03-03T15:07:59.169Z,46.31
2023-03-03T15:12:06.165Z,47.76
2023-03-03T15:16:17.391Z,45.89
2023-03-03T15:20:32.783Z,48.70
2023-03-03T15:24:43.189Z,48.51
2023-03-03T15:28:59.584Z,45.59
2023-03-03T15:33:09.557Z,48.93
2023-03-03T15:37:22.422Z,45.34
2023-03-03T15:41:33.343Z,46.85
2023-03-03T15:45:45.009Z,47.31
2023-03-03T15:50:12.905Z,47.58
2023-03-03T15:54:33.330Z,49.95
2023-03-03T15:58:53.564Z,51.63
2023-03-03T16:03:01.182Z,48.77
2023-03-03T16:07:08.494Z,47.46
2023-03-03T16:11:15.932Z,53.61
2023-03-03T16:15:41.134Z,47.21
2023-03-03T16:19:53.342Z,50.25
2023-03-03T16:23:58.385Z,50.73
2023-03-03T16:28:07.513Z,54.43
2023-03-03T16:32:13.706Z,57.40
2023-03-03T16:36:27.881Z,58.81
2023-03-03T16:40:33.724Z,57.83
2023-03-03T16:44:41.902Z,58.13
2023-03-03T16:48:49.514Z,56.70
2023-03-03T16:52:57.002Z,57.73
2023-03-03T16:57:09.534Z,60.08
2023-03-03T17:01:18.858Z,61.42
2023-03-03T17:05:28.461Z,62.80
2023-03-03T17:09:58.979Z,64.11
2023-03-03T17:14:15.053Z,64.64
2023-03-03T17:18:25.648Z,64.34
2023-03-03T17:22:35.584Z,64.72
2023-03-03T17:26:52.061Z,65.46
2023-03-03T17:30:59.650Z,65.78
2023-03-03T17:35:22.904Z,66.84
2023-03-03T17:39:42.174Z,68.15
2023-03-03T17:43:52.818Z,68.28
2023-03-03T17:48:08.505Z,66.12
2023-03-03T17:52:27.742Z,67.24
2023-03-03T17:56:36.644Z,66.05
2023-03-03T18:00:52.006Z,67.30
2023-03-03T18:05:37.313Z,65.55
2023-03-03T18:09:54.538Z,66.42
2023-03-03T18:14:26.664Z,64.76
2023-03-03T18:18:43.192Z,66.25
2023-03-03T18:22:48.516Z,66.57
2023-03-03T18:26:52.039Z,66.54
2023-03-03T18:30:58.395Z,66.33
2023-03-03T18:35:26.506Z,66.01
2023-03-03T18:39:45.729Z,66.34
2023-03-03T18:43:56.031Z,65.85
2023-03-03T18:48:05.639Z,66.18
2023-03-03T18:52:25.802Z,66.62
2023-03-03T18:56:44.430Z,66.22
2023-03-03T19:00:49.262Z,67.60
2023-03-03T19:04:55.651Z,68.83
2023-03-03T19:09:00.770Z,71.23
2023-03-03T19:13:04.167Z,68.59
2023-03-03T19:17:40.424Z,68.80
2023-03-03T19:21:54.387Z,68.68
2023-03-03T19:26:21.956Z,69.31
2023-03-03T19:30:44.415Z,71.05
2023-03-03T19:34:50.121Z,70.74
2023-03-03T19:39:02.663Z,72.14
2023-03-03T19:43:13.677Z,75.14
2023-03-03T19:47:26.513Z,74.20
2023-03-03T19:51:35.873Z,75.31
2023-03-03T19:55:46.349Z,73.98
2023-03-03T19:59:54.232Z,77.02
2023-03-03T20:04:23.015Z,75.21
2023-03-03T20:08:30.913Z,74.05
2023-03-03T20:12:43.762Z,72.85
2023-03-03T20:16:50.428Z,73.33
2023-03-03T20:21:02.098Z,73.92
2023-03-03T20:25:14.674Z,74.73
2023-03-03T20:29:31.548Z,75.44
2023-03-03T20:33:39.006Z,75.53
2023-03-03T20:37:52.221Z,75.12
2023-03-03T20:42:06.224Z,76.18
2023-03-03T20:46:14.413Z,77.03
2023-03-03T20:50:25.936Z,76.15
2023-03-03T20:54:34.694Z,75.55
2023-03-03T20:58:48.553Z,75.82
2023-03-03T21:03:00.013Z,76.52
2023-03-03T21:07:05.369Z,77.15
2023-03-03T21:11:08.983Z,77.68
2023-03-03T21:15:25.066Z,77.89
2023-03-03T21:19:30.212Z,79.78
2023-03-03T21:23:35.064Z,81.08
2023-03-03T21:27:38.596Z,80.15
2023-03-03T21:31:48.930Z,81.09
2023-03-03T21:36:02.273Z,79.03
2023-03-03T21:40:21.088Z,81.83
2023-03-03T21:44:41.463Z,81.75
2023-03-03T21:48:44.802Z,79.16
2023-03-03T21:52:48.271Z,79.46
2023-03-03T21:56:53.271Z,82.79
2023-03-03T22:00:56.734Z,81.52
2023-03-03T22:05:00.244Z,82.07
2023-03-03T22:09:03.805Z,81.80
2023-03-03T22:13:08.661Z,83.02
2023-03-03T22:17:11.943Z,85.70
2023-03-03T22:21:15.635Z,86.71
2023-03-03T22:25:19.221Z,85.50
2023-03-03T22:29:23.999Z,86.07
2023-03-03T22:33:27.620Z,86.93
2023-03-03T22:37:32.190Z,84.34
2023-03-03T22:41:35.590Z,86.10
2023-03-03T22:45:40.705Z,85.46
2023-03-03T22:49:43.896Z,86.82
2023-03-03T22:53:47.288Z,83.61
2023-03-03T22:57:50.555Z,85.22
2023-03-03T23:01:56.289Z,85.54
2023-03-03T23:05:59.672Z,85.53
2023-03-03T23:10:02.917Z,84.55
2023-03-03T23:14:06.380Z,85.45
2023-03-03T23:18:11.228Z,84.96
2023-03-03T23:22:14.686Z,84.82
2023-03-03T23:26:18.191Z,83.90
2023-03-03T23:30:22.649Z,84.32
2023-03-03T23:34:27.224Z,85.00
2023-03-03T23:38:30.462Z,84.66
2023-03-03T23:42:33.646Z,85.17
2023-03-03T23:46:38.172Z,84.75
2023-03-03T23:50:42.882Z,84.90
2023-03-03T23:54:46.072Z,85.89
2023-03-03T23:58:49.419Z,86.49
